createdAt,value
2023-04-02T00:08:59.073Z,99514.63
2023-04-02T00:24:03.374Z,99539.06
2023-04-02T00:39:13.085Z,99551.56
2023-04-02T00:54:25.594Z,99532.53
2023-04-02T01:10:06.368Z,99532.97
2023-04-02T01:25:09.109Z,99531.28
2023-04-02T01:40:20.178Z,99534.00
2023-04-02T01:55:33.505Z,99540.09
2023-04-02T02:10:39.370Z,99551.97
2023-04-02T02:25:55.689Z,99534.09
2023-04-02T02:41:38.451Z,99543.03
2023-04-02T02:56:49.373Z,99543.75
2023-04-02T03:12:04.306Z,99552.13
2023-04-02T03:43:42.664Z,99551.44
2023-04-02T03:59:16.408Z,99559.44
2023-04-02T04:14:38.228Z,99558.44
2023-04-02T04:30:35.567Z,99567.31
2023-04-02T04:46:05.397Z,99563.34
2023-04-02T05:01:15.953Z,99560.28
2023-04-02T05:16:46.724Z,99564.03
2023-04-02T05:31:54.953Z,99560.06
2023-04-02T05:47:26.182Z,99563.66
2023-04-02T06:02:36.685Z,99546.00
2023-04-02T06:17:47.918Z,99556.50
2023-04-02T06:32:50.319Z,99559.59
2023-04-02T06:47:52.664Z,99554.63
2023-04-02T07:02:56.704Z,99562.53
2023-04-02T07:18:00.306Z,99563.25
2023-04-02T07:33:02.749Z,99544.19
2023-04-02T07:48:13.847Z,99541.03
2023-04-02T08:03:34.941Z,99553.38
2023-04-02T08:18:39.266Z,99524.19
2023-04-02T08:33:41.496Z,99506.88
2023-04-02T08:48:47.787Z,99533.09
2023-04-02T09:03:52.312Z,99546.66
2023-04-02T09:18:56.597Z,99557.16
2023-04-02T09:34:03.210Z,99557.81
2023-04-02T09:49:05.183Z,99550.09
2023-04-02T10:04:38.724Z,99533.00
2023-04-02T10:19:50.394Z,99511.63
2023-04-02T10:34:52.689Z,99518.13
2023-04-02T10:50:14.982Z,99505.56
2023-04-02T11:05:29.442Z,99514.84
2023-04-02T11:20:56.474Z,99489.22
2023-04-02T11:35:59.175Z,99486.06
2023-04-02T11:51:05.421Z,99479.66
2023-04-02T12:06:26.074Z,99502.94
2023-04-02T12:21:29.852Z,99493.25
2023-04-02T12:36:32.220Z,99497.09
2023-04-02T12:51:36.826Z,99513.41
2023-04-02T13:22:00.122Z,99544.34
2023-04-02T13:37:11.382Z,99539.09
2023-04-02T13:52:15.822Z,99526.44
2023-04-02T14:07:23.911Z,99525.47
2023-04-02T14:22:47.628Z,99509.31
2023-04-02T14:38:18.175Z,99482.22
2023-04-02T14:53:53.022Z,99484.97
2023-04-02T15:09:09.473Z,99471.56
2023-04-02T15:24:18.912Z,99465.81
2023-04-02T15:39:43.132Z,99472.41
2023-04-02T15:54:57.374Z,99477.06
2023-04-02T16:25:59.984Z,99449.75
2023-04-02T16:41:23.671Z,99450.28
2023-04-02T16:56:56.171Z,99465.75
2023-04-02T17:12:14.306Z,99454.06
2023-04-02T17:27:31.582Z,99444.88
2023-04-02T17:43:08.687Z,99450.66
2023-04-02T17:58:55.465Z,99417.59
2023-04-02T18:14:23.415Z,99403.63
2023-04-02T18:30:03.452Z,99401.19
2023-04-02T18:45:15.426Z,99394.75
2023-04-02T19:00:20.430Z,99392.22
2023-04-02T19:15:50.799Z,99379.06
2023-04-02T19:31:50.374Z,99359.56
2023-04-02T19:46:53.240Z,99355.44
2023-04-02T20:01:55.367Z,99334.34
2023-04-02T20:16:57.474Z,99328.75
2023-04-02T20:32:46.489Z,99312.78
2023-04-02T20:48:19.033Z,99294.75
2023-04-02T21:03:33.619Z,99285.69
2023-04-02T21:18:36.115Z,99268.56
2023-04-02T21:33:44.443Z,99232.75
2023-04-02T21:48:47.364Z,99222.09
2023-04-02T22:04:15.664Z,99202.69
2023-04-02T22:19:21.157Z,99182.63
2023-04-02T22:34:23.229Z,99180.16
2023-04-02T22:49:25.427Z,99159.78
2023-04-02T23:04:27.348Z,99149.09
2023-04-02T23:19:29.391Z,99121.78
2023-04-02T23:34:31.874Z,99122.09
2023-04-02T23:49:35.854Z,99093.41
